Time;durP1;ratioP1;P1;durP2;ratioP2;P2;SDS_P1;SDS_P2;PMS_P1;PMS_P2;Temp;Humidity;BMP_temperature;BMP_pressure;BME280_temperature;BME280_humidity;BME280_pressure;Samples;Min_cycle;Max_cycle;Signal;HPM_P1;HPM_P2
2021/09/18 00:01:56;;;;;;;1.80;1.70;;;;;;;22.68;92.44;97420.03;4995511;28;20256;-70
2021/09/18 00:04:23;;;;;;;1.70;1.60;;;;;;;22.66;92.40;97410.59;4993105;28;20427;-70
2021/09/18 00:06:49;;;;;;;1.73;1.63;;;;;;;22.60;92.04;97400.19;4992230;28;20241;-72
2021/09/18 00:09:16;;;;;;;1.80;1.70;;;;;;;22.61;92.23;97401.91;4983736;28;20275;-71
2021/09/18 00:11:43;;;;;;;2.07;1.90;;;;;;;22.59;92.59;97395.91;5005351;28;20918;-70
2021/09/18 00:14:09;;;;;;;1.90;1.80;;;;;;;22.50;92.68;97386.31;4976210;28;20234;-70
2021/09/18 00:16:36;;;;;;;1.70;1.60;;;;;;;22.56;92.32;97398.41;4997465;28;20264;-71
2021/09/18 00:19:02;;;;;;;1.60;1.50;;;;;;;22.62;92.33;97412.19;4996835;28;20322;-71
2021/09/18 00:21:29;;;;;;;2.00;1.90;;;;;;;22.58;92.46;97397.59;4995961;28;20242;-70
2021/09/18 00:23:56;;;;;;;1.60;1.50;;;;;;;22.65;93.23;97412.28;4992919;28;20321;-70
2021/09/18 00:26:22;;;;;;;1.70;1.60;;;;;;;22.64;92.55;97410.56;4997317;28;20375;-71
2021/09/18 00:28:49;;;;;;;1.80;1.70;;;;;;;22.57;92.47;97397.56;5008170;28;20245;-71
2021/09/18 00:31:15;;;;;;;1.87;1.70;;;;;;;22.58;92.62;97399.28;4996180;28;20230;-71
2021/09/18 00:33:42;;;;;;;1.80;1.70;;;;;;;22.55;92.59;97394.09;4998806;28;20207;-72
2021/09/18 00:36:09;;;;;;;1.57;1.47;;;;;;;22.53;92.51;97388.09;4999299;28;20248;-70
2021/09/18 00:38:44;;;;;;;1.80;1.70;;;;;;;22.64;92.52;97407.13;5003142;28;20238;-70
2021/09/18 00:41:11;;;;;;;1.83;1.73;;;;;;;22.52;92.47;97394.91;4994397;28;20226;-70
2021/09/18 00:43:38;;;;;;;1.80;1.70;;;;;;;22.57;92.92;97403.56;4980557;28;20294;-71
2021/09/18 00:46:04;;;;;;;1.77;1.67;;;;;;;22.65;92.67;97416.56;4996425;28;20241;-71
2021/09/18 00:48:31;;;;;;;1.80;1.70;;;;;;;22.53;93.45;97396.63;4979276;28;20226;-70
2021/09/18 00:50:57;;;;;;;1.83;1.73;;;;;;;22.63;92.20;97413.97;4975930;28;20245;-71
2021/09/18 00:53:24;;;;;;;1.93;1.73;;;;;;;22.64;92.58;97418.25;5001112;28;20556;-70
2021/09/18 00:55:50;;;;;;;1.80;1.70;;;;;;;22.57;92.55;97398.44;4985994;28;20731;-71
2021/09/18 00:58:17;;;;;;;1.60;1.50;;;;;;;22.34;92.79;97361.16;4986277;28;20309;-71
2021/09/18 01:00:44;;;;;;;1.50;1.40;;;;;;;22.60;92.76;97407.88;4970616;28;20306;-71
2021/09/18 01:03:10;;;;;;;1.80;1.70;;;;;;;22.65;92.85;97411.44;4993489;28;20206;-70
2021/09/18 01:05:37;;;;;;;1.60;1.50;;;;;;;22.58;92.81;97401.84;4994972;28;20294;-71
2021/09/18 01:08:04;;;;;;;1.73;1.63;;;;;;;22.65;92.82;97414.00;4994554;28;20226;-71
2021/09/18 01:10:31;;;;;;;1.73;1.63;;;;;;;22.57;92.86;97397.56;5001959;28;20226;-70
2021/09/18 01:12:57;;;;;;;1.80;1.70;;;;;;;22.65;92.74;97409.72;4975580;28;20206;-71
2021/09/18 01:15:25;;;;;;;1.43;1.40;;;;;;;22.53;92.91;97386.38;5000910;28;20206;-71
2021/09/18 01:17:51;;;;;;;1.67;1.57;;;;;;;22.64;93.18;97407.13;5002186;28;20273;-72
2021/09/18 01:20:18;;;;;;;2.00;1.90;;;;;;;22.51;92.76;97384.63;4996525;28;20235;-71
2021/09/18 01:22:45;;;;;;;1.70;1.60;;;;;;;22.58;92.80;97400.16;4990295;28;20679;-70
2021/09/18 01:25:12;;;;;;;1.90;1.80;;;;;;;22.55;92.84;97394.97;4985254;28;20590;-71
2021/09/18 01:27:39;;;;;;;1.90;1.80;;;;;;;22.52;93.07;97392.34;5001919;28;20209;-71
2021/09/18 01:30:06;;;;;;;1.90;1.80;;;;;;;22.61;92.90;97410.47;4990303;28;20715;-71
2021/09/18 01:32:32;;;;;;;1.80;1.70;;;;;;;22.42;92.53;97376.69;4985897;28;20614;-72
2021/09/18 01:34:59;;;;;;;1.70;1.60;;;;;;;22.49;92.76;97386.22;4967694;28;20209;-71
2021/09/18 01:37:27;;;;;;;1.80;1.70;;;;;;;22.60;92.94;97413.88;4989518;28;20226;-71
2021/09/18 01:39:53;;;;;;;1.40;1.30;;;;;;;22.57;92.89;97407.81;4998088;28;20237;-72
2021/09/18 01:42:20;;;;;;;1.90;1.80;;;;;;;22.63;92.86;97421.63;4993588;28;20239;-70
2021/09/18 01:44:47;;;;;;;1.70;1.60;;;;;;;22.56;92.91;97409.50;4995443;28;20685;-70
2021/09/18 01:47:13;;;;;;;1.70;1.60;;;;;;;22.60;92.92;97407.88;4994858;28;20211;-71
2021/09/18 01:49:40;;;;;;;1.80;1.70;;;;;;;22.39;92.74;97374.06;4995286;28;20227;-72
2021/09/18 01:52:18;;;;;;;1.80;1.70;;;;;;;22.55;92.91;97402.66;4995741;28;20203;-71
2021/09/18 01:54:44;;;;;;;1.90;1.80;;;;;;;22.42;93.03;97374.13;5006006;28;20594;-71
2021/09/18 01:57:11;;;;;;;1.67;1.57;;;;;;;22.57;92.71;97401.00;4985016;28;20206;-71
2021/09/18 01:59:38;;;;;;;1.70;1.60;;;;;;;22.52;92.83;97384.66;4998431;28;20235;-71
2021/09/18 02:02:04;;;;;;;1.73;1.63;;;;;;;22.64;92.92;97409.69;4994033;28;20206;-71
2021/09/18 02:04:31;;;;;;;1.87;1.77;;;;;;;22.47;92.76;97377.69;4994414;28;20221;-73
2021/09/18 02:06:58;;;;;;;2.70;1.70;;;;;;;22.65;92.71;97406.31;4972133;28;20207;-68
2021/09/18 02:09:25;;;;;;;1.60;1.50;;;;;;;22.56;92.56;97389.00;4995359;28;20227;-71
2021/09/18 02:11:51;;;;;;;1.60;1.50;;;;;;;22.63;92.90;97398.59;5006449;28;20207;-71
2021/09/18 02:14:18;;;;;;;1.90;1.80;;;;;;;22.63;92.78;97401.16;4995321;28;20203;-70
2021/09/18 02:16:44;;;;;;;1.53;1.43;;;;;;;22.51;93.00;97375.25;4996810;28;20792;-70
2021/09/18 02:19:11;;;;;;;1.77;1.67;;;;;;;22.64;92.53;97400.31;4994473;28;20317;-70
2021/09/18 02:21:38;;;;;;;1.70;1.60;;;;;;;22.59;92.60;97390.78;4991853;28;20210;-71
2021/09/18 02:24:04;;;;;;;1.60;1.50;;;;;;;22.47;92.50;97364.88;4995432;28;20298;-70
2021/09/18 02:26:31;;;;;;;1.70;1.60;;;;;;;22.61;92.60;97391.66;4977603;28;20683;-71
2021/09/18 02:28:58;;;;;;;1.60;1.50;;;;;;;22.61;92.81;97389.13;5004194;28;20703;-70
2021/09/18 02:31:24;;;;;;;1.70;1.60;;;;;;;22.55;93.06;97379.59;4995096;28;20207;-70
2021/09/18 02:33:51;;;;;;;1.70;1.60;;;;;;;22.63;92.94;97395.16;4996265;28;20231;-70
2021/09/18 02:36:18;;;;;;;1.70;1.60;;;;;;;22.54;92.82;97377.00;5002544;28;20214;-69
2021/09/18 02:38:44;;;;;;;1.60;1.50;;;;;;;22.53;92.80;97375.28;4994116;28;20265;-71
2021/09/18 02:41:11;;;;;;;1.63;1.53;;;;;;;22.62;92.83;97394.28;4995820;28;20226;-71
2021/09/18 02:43:37;;;;;;;1.77;1.67;;;;;;;22.54;92.57;97384.69;4978734;28;20214;-70
2021/09/18 02:46:04;;;;;;;1.70;1.60;;;;;;;22.49;92.34;97364.06;4980364;28;20214;-71
2021/09/18 02:48:31;;;;;;;1.70;1.60;;;;;;;22.62;92.82;97386.59;5000719;28;20297;-71
2021/09/18 02:51:12;;;;;;;2.10;1.90;;;;;;;22.50;92.85;97368.38;4998008;28;20206;-71
2021/09/18 02:53:38;;;;;;;1.70;1.60;;;;;;;22.58;92.89;97378.78;5001956;28;20222;-71
2021/09/18 02:56:05;;;;;;;1.80;1.70;;;;;;;22.62;93.23;97383.19;4993549;28;20218;-70
2021/09/18 02:58:32;;;;;;;1.70;1.60;;;;;;;22.57;92.98;97364.28;4994876;28;20230;-71
2021/09/18 03:00:58;;;;;;;1.73;1.63;;;;;;;22.61;92.93;97368.63;5009512;23;20234;-65
2021/09/18 03:03:25;;;;;;;1.60;1.50;;;;;;;22.62;93.06;97371.22;4992218;28;20252;-65
2021/09/18 03:05:52;;;;;;;1.60;1.50;;;;;;;22.61;93.17;97373.75;4996684;28;20216;-65
2021/09/18 03:08:19;;;;;;;1.80;1.70;;;;;;;22.62;93.31;97384.03;4990339;28;20731;-65
2021/09/18 03:10:45;;;;;;;1.80;1.70;;;;;;;22.61;93.00;97378.88;4991566;28;20231;-65
2021/09/18 03:13:12;;;;;;;1.70;1.60;;;;;;;22.61;92.57;97374.63;4989535;28;20681;-64
2021/09/18 03:15:39;;;;;;;1.70;1.60;;;;;;;22.61;93.10;97381.44;4995661;28;20705;-65
2021/09/18 03:18:05;;;;;;;1.90;1.80;;;;;;;22.61;92.97;97371.19;4994578;28;20226;-64
2021/09/18 03:20:32;;;;;;;1.70;1.60;;;;;;;22.62;93.12;97390.88;4996297;28;20222;-65
2021/09/18 03:22:59;;;;;;;1.73;1.63;;;;;;;22.61;93.17;97381.44;4994715;28;20671;-66
2021/09/18 03:25:25;;;;;;;1.97;1.87;;;;;;;22.61;93.37;97379.75;4990331;28;20265;-65
2021/09/18 03:27:52;;;;;;;1.50;1.40;;;;;;;22.62;93.56;97388.31;4991184;28;20213;-65
2021/09/18 03:30:19;;;;;;;1.80;1.70;;;;;;;22.62;93.29;97385.75;4989295;28;20684;-64
2021/09/18 03:32:45;;;;;;;1.40;1.30;;;;;;;22.61;93.14;97384.88;4996746;28;20747;-64
2021/09/18 03:35:12;;;;;;;2.43;1.70;;;;;;;22.62;93.32;97385.75;4993459;28;20198;-64
2021/09/18 03:37:38;;;;;;;1.80;1.70;;;;;;;22.62;93.13;97385.75;4990487;28;20514;-65
2021/09/18 03:40:07;;;;;;;1.43;1.33;;;;;;;22.61;93.07;97382.31;4990301;28;20233;-64
2021/09/18 03:42:34;;;;;;;1.70;1.60;;;;;;;22.61;93.62;97381.44;4990559;28;20501;-65
2021/09/18 03:45:02;;;;;;;1.57;1.47;;;;;;;22.61;93.15;97381.44;4997884;28;20242;-65
2021/09/18 03:47:28;;;;;;;1.60;1.50;;;;;;;22.60;92.99;97380.59;4989560;28;20587;-65
2021/09/18 03:49:55;;;;;;;1.60;1.50;;;;;;;22.60;93.07;97380.59;4998380;28;20354;-64
2021/09/18 03:52:25;;;;;;;1.50;1.40;;;;;;;22.62;93.13;97393.44;4992939;28;20215;-65
2021/09/18 03:54:53;;;;;;;1.60;1.50;;;;;;;22.62;93.12;97383.19;4991146;28;20202;-64
2021/09/18 03:57:19;;;;;;;1.67;1.57;;;;;;;22.61;93.01;97381.44;4989307;28;20677;-65
2021/09/18 03:59:46;;;;;;;1.70;1.60;;;;;;;22.61;93.14;97381.44;4990932;28;20254;-65
2021/09/18 04:02:13;;;;;;;1.63;1.53;;;;;;;22.61;92.98;97381.44;4998686;28;20202;-65
2021/09/18 04:04:40;;;;;;;1.53;1.43;;;;;;;22.61;92.76;97379.75;4990850;28;20576;-65
2021/09/18 04:07:06;;;;;;;1.70;1.60;;;;;;;22.61;93.08;97379.75;4998140;28;20261;-64
2021/09/18 04:09:33;;;;;;;1.90;1.80;;;;;;;22.61;93.06;97384.88;4991992;28;20218;-64
2021/09/18 04:11:59;;;;;;;1.60;1.50;;;;;;;22.63;92.79;97390.03;4990610;28;20583;-66
2021/09/18 04:14:26;;;;;;;1.63;1.53;;;;;;;22.62;93.04;97396.00;4988816;28;20215;-65
2021/09/18 04:16:52;;;;;;;1.80;1.70;;;;;;;22.61;93.04;97397.66;4991240;28;20260;-63
2021/09/18 04:19:19;;;;;;;1.60;1.50;;;;;;;22.61;92.98;97401.91;4999030;28;20257;-65
2021/09/18 04:21:46;;;;;;;1.90;1.80;;;;;;;22.61;93.00;97401.91;4990928;28;20294;-65
2021/09/18 04:24:12;;;;;;;1.57;1.47;;;;;;;22.62;93.28;97409.63;4999232;28;20198;-64
2021/09/18 04:26:39;;;;;;;1.70;1.60;;;;;;;22.61;92.74;97412.16;4991393;28;20199;-66
2021/09/18 04:29:06;;;;;;;1.80;1.70;;;;;;;22.61;92.90;97413.03;4988780;28;20199;-65
2021/09/18 04:31:32;;;;;;;1.70;1.60;;;;;;;22.61;92.78;97413.03;4987866;28;20211;-65
2021/09/18 04:33:59;;;;;;;1.70;1.60;;;;;;;22.61;92.39;97414.72;4998079;28;20249;-65
2021/09/18 04:36:26;;;;;;;1.80;1.70;;;;;;;22.60;92.48;97413.88;4989651;28;20210;-64
2021/09/18 04:38:52;;;;;;;1.53;1.43;;;;;;;22.61;92.88;97418.16;4989738;28;20226;-65
2021/09/18 04:41:19;;;;;;;1.80;1.60;;;;;;;22.60;92.93;97416.44;4989405;28;20230;-64
2021/09/18 04:43:45;;;;;;;1.60;1.50;;;;;;;22.60;92.83;97406.19;4990635;28;20207;-65
2021/09/18 04:46:12;;;;;;;1.83;1.73;;;;;;;22.61;92.85;97412.16;4999261;28;20238;-65
2021/09/18 04:48:39;;;;;;;1.60;1.50;;;;;;;22.60;92.99;97413.00;4990110;28;20253;-65
2021/09/18 04:51:05;;;;;;;1.87;1.77;;;;;;;22.60;93.00;97411.31;5000426;28;20728;-64
2021/09/18 04:53:32;;;;;;;1.80;1.70;;;;;;;22.60;92.86;97420.69;4989658;28;20673;-65
2021/09/18 04:55:59;;;;;;;1.60;1.50;;;;;;;22.60;93.09;97423.25;4989077;28;20210;-65
2021/09/18 04:58:25;;;;;;;1.70;1.60;;;;;;;22.59;93.02;97419.81;4988652;28;20226;-65
2021/09/18 05:00:52;;;;;;;1.67;1.57;;;;;;;22.59;93.11;97419.81;4994144;28;20254;-65
2021/09/18 05:03:19;;;;;;;1.70;1.60;;;;;;;22.60;93.02;97420.69;5001888;28;20210;-65
2021/09/18 05:05:47;;;;;;;1.60;1.50;;;;;;;22.59;93.04;97413.84;4993992;28;20218;-64
2021/09/18 05:08:15;;;;;;;1.60;1.50;;;;;;;22.60;92.99;97425.81;5002613;28;20202;-65
2021/09/18 05:10:41;;;;;;;1.60;1.50;;;;;;;22.60;93.09;97425.81;4992084;28;20226;-66
2021/09/18 05:13:08;;;;;;;1.60;1.50;;;;;;;22.59;93.42;97422.38;4991476;28;21059;-66
2021/09/18 05:15:34;;;;;;;1.70;1.60;;;;;;;22.58;93.03;97428.34;4992609;28;20207;-65
2021/09/18 05:18:01;;;;;;;1.70;1.60;;;;;;;22.59;92.96;97432.63;4994513;28;20250;-65
2021/09/18 05:20:28;;;;;;;1.80;1.70;;;;;;;22.60;93.02;97436.06;4999887;28;20530;-65
2021/09/18 05:22:54;;;;;;;1.90;1.80;;;;;;;22.60;93.05;97439.50;4994868;28;20202;-65
2021/09/18 05:25:21;;;;;;;1.60;1.50;;;;;;;22.60;93.06;97433.50;5001894;28;20199;-64
2021/09/18 05:27:49;;;;;;;1.80;1.70;;;;;;;22.59;93.05;97440.31;4993107;28;20574;-64
2021/09/18 05:30:15;;;;;;;2.33;1.77;;;;;;;22.60;93.18;97439.50;4988725;28;20574;-65
2021/09/18 05:32:42;;;;;;;1.70;1.60;;;;;;;22.59;93.05;97437.75;4996975;28;20210;-65
2021/09/18 05:35:09;;;;;;;1.80;1.70;;;;;;;22.60;93.17;97443.75;4996079;28;20627;-65
2021/09/18 05:37:35;;;;;;;1.53;1.43;;;;;;;22.60;93.15;97441.19;4991971;28;20578;-65
2021/09/18 05:40:03;;;;;;;1.70;1.60;;;;;;;22.60;93.01;97448.88;4992830;28;20227;-65
2021/09/18 05:42:29;;;;;;;1.80;1.70;;;;;;;22.60;93.06;97454.00;4992208;28;20567;-65
2021/09/18 05:44:56;;;;;;;1.70;1.60;;;;;;;22.60;93.02;97452.31;4999692;28;20289;-64
2021/09/18 05:47:23;;;;;;;1.70;1.60;;;;;;;22.56;92.70;97439.38;4993886;28;20700;-65
2021/09/18 05:49:49;;;;;;;1.90;1.80;;;;;;;22.60;92.96;97451.44;4999598;28;20921;-65
2021/09/18 05:52:16;;;;;;;1.60;1.50;;;;;;;22.59;92.86;97450.56;4996122;28;20625;-65
2021/09/18 05:54:43;;;;;;;1.80;1.70;;;;;;;22.59;92.99;97442.03;4993300;28;20207;-65
2021/09/18 05:57:10;;;;;;;1.80;1.70;;;;;;;22.60;92.84;97451.44;4991531;28;20684;-65
2021/09/18 05:59:36;;;;;;;1.70;1.60;;;;;;;22.60;92.71;97448.88;4989042;28;20231;-65
2021/09/18 06:02:03;;;;;;;1.80;1.70;;;;;;;22.60;92.78;97446.31;5000215;28;20261;-65
2021/09/18 06:04:30;;;;;;;1.80;1.70;;;;;;;22.59;92.67;97440.31;4993455;28;20873;-64
2021/09/18 06:06:56;;;;;;;1.80;1.70;;;;;;;22.60;92.82;97438.63;5000341;28;20207;-64
2021/09/18 06:09:23;;;;;;;1.60;1.50;;;;;;;22.59;92.76;97448.00;4994565;28;20293;-64
2021/09/18 06:11:49;;;;;;;1.60;1.50;;;;;;;22.60;92.81;97436.06;4991379;28;20211;-65
2021/09/18 06:14:16;;;;;;;1.70;1.60;;;;;;;22.59;92.77;97430.06;4990689;28;20277;-64
2021/09/18 06:16:42;;;;;;;1.70;1.60;;;;;;;22.60;92.76;97431.81;4993094;28;20234;-65
2021/09/18 06:19:11;;;;;;;1.80;1.70;;;;;;;22.60;92.37;97428.38;4998135;28;20739;-66
2021/09/18 06:21:39;;;;;;;1.80;1.70;;;;;;;22.60;92.70;97438.63;4992669;28;20269;-65
2021/09/18 06:24:11;;;;;;;1.70;1.60;;;;;;;22.60;92.54;97448.88;5000059;28;20202;-64
2021/09/18 06:26:38;;;;;;;1.50;1.40;;;;;;;22.59;92.70;97447.16;4993068;28;20258;-64
2021/09/18 06:29:05;;;;;;;1.70;1.60;;;;;;;22.59;92.86;97448.00;4991220;28;20210;-65
2021/09/18 06:31:31;;;;;;;1.60;1.50;;;;;;;22.59;92.85;97437.75;4990992;28;20221;-65
2021/09/18 06:33:58;;;;;;;1.80;1.70;;;;;;;22.59;93.09;97437.75;5002031;28;20642;-64
2021/09/18 06:36:25;;;;;;;1.60;1.50;;;;;;;22.59;92.97;97440.31;4990804;28;20269;-64
2021/09/18 06:38:51;;;;;;;1.60;1.50;;;;;;;22.60;93.23;97451.44;4991409;28;20233;-65
2021/09/18 06:41:18;;;;;;;1.70;1.60;;;;;;;21.51;92.84;97260.97;4990953;28;20297;-65
2021/09/18 06:43:45;;;;;;;1.97;1.87;;;;;;;22.61;93.33;97459.16;4992006;28;20210;-65
2021/09/18 06:46:11;;;;;;;1.50;1.40;;;;;;;22.61;92.93;97461.72;5000515;28;20611;-64
2021/09/18 06:48:38;;;;;;;1.57;1.47;;;;;;;22.62;93.42;97465.16;4991400;28;20215;-64
2021/09/18 06:51:05;;;;;;;1.70;1.60;;;;;;;22.62;92.76;97460.03;5001666;28;20223;-64
2021/09/18 06:53:31;;;;;;;1.50;1.40;;;;;;;22.64;92.94;97466.03;4990602;28;20211;-63
2021/09/18 06:55:58;;;;;;;1.90;1.80;;;;;;;22.63;92.55;97464.31;4990070;28;20683;-64
2021/09/18 06:58:24;;;;;;;2.00;1.90;;;;;;;22.63;92.97;97456.63;4990582;28;20210;-65
2021/09/18 07:00:51;;;;;;;1.70;1.60;;;;;;;22.64;93.01;97468.59;4991620;28;20230;-65
2021/09/18 07:03:18;;;;;;;1.80;1.70;;;;;;;22.64;93.01;97466.03;4999600;28;20203;-64
2021/09/18 07:05:45;;;;;;;2.13;2.03;;;;;;;22.65;92.82;97467.78;4992040;28;20297;-65
2021/09/18 07:08:11;;;;;;;1.57;1.47;;;;;;;22.65;92.70;97470.34;5001200;28;20218;-65
2021/09/18 07:10:38;;;;;;;1.90;1.80;;;;;;;22.64;92.94;97466.03;4991454;28;20674;-64
2021/09/18 07:13:04;;;;;;;1.90;1.80;;;;;;;22.64;92.79;97477.16;4990394;28;20283;-65
2021/09/18 07:15:31;;;;;;;1.90;1.80;;;;;;;22.65;92.86;97478.03;4990720;28;20253;-64
2021/09/18 07:17:58;;;;;;;1.60;1.50;;;;;;;22.66;92.75;97472.06;4991510;28;20587;-65
2021/09/18 07:20:24;;;;;;;1.70;1.60;;;;;;;22.65;92.98;97473.75;4998257;28;20237;-66
2021/09/18 07:22:51;;;;;;;1.70;1.60;;;;;;;22.66;92.72;97480.63;4992123;28;20234;-65
2021/09/18 07:25:17;;;;;;;1.60;1.50;;;;;;;22.67;92.62;97469.53;5000124;28;20202;-64
2021/09/18 07:27:44;;;;;;;1.90;1.80;;;;;;;22.66;92.31;97470.38;4990786;28;20211;-64
2021/09/18 07:30:11;;;;;;;1.70;1.60;;;;;;;22.68;92.65;97478.09;4989839;28;20215;-65
2021/09/18 07:32:38;;;;;;;2.07;1.90;;;;;;;22.67;92.64;97477.22;4995181;28;20412;-65
2021/09/18 07:35:07;;;;;;;1.80;1.70;;;;;;;22.63;92.75;97470.31;4995605;28;20695;-65
2021/09/18 07:37:34;;;;;;;1.70;1.60;;;;;;;22.67;92.73;97484.91;4985442;28;20678;-64
2021/09/18 07:40:04;;;;;;;1.60;1.50;;;;;;;22.69;92.64;97490.06;4990470;28;20241;-65
2021/09/18 07:42:30;;;;;;;2.10;1.90;;;;;;;22.68;92.61;97489.19;4990361;28;20281;-66
2021/09/18 07:44:57;;;;;;;1.53;1.43;;;;;;;22.69;92.61;97490.06;4997596;28;20203;-64
2021/09/18 07:47:23;;;;;;;1.70;1.60;;;;;;;22.68;92.76;97491.75;4992052;28;20218;-66
2021/09/18 07:49:50;;;;;;;1.90;1.80;;;;;;;22.70;92.50;97489.22;4997673;28;20647;-65
2021/09/18 07:52:17;;;;;;;1.70;1.60;;;;;;;22.70;92.58;97494.34;4994336;28;20258;-65
2021/09/18 07:54:44;;;;;;;1.73;1.63;;;;;;;22.69;92.65;97484.94;4989648;28;20203;-66
2021/09/18 07:57:30;;;;;;;1.77;1.67;;;;;;;22.70;92.62;97489.22;4989804;28;20229;-64
2021/09/18 07:59:57;;;;;;;1.90;1.80;;;;;;;22.70;92.34;97487.56;4990682;28;20316;-65
2021/09/18 08:02:24;;;;;;;1.90;1.80;;;;;;;22.69;92.63;97485.81;4999408;28;20221;-64
2021/09/18 08:04:51;;;;;;;1.73;1.63;;;;;;;22.68;92.62;97489.19;4990812;28;20213;-66
2021/09/18 08:07:21;;;;;;;1.90;1.80;;;;;;;22.70;92.28;97502.03;5000051;28;20361;-65
2021/09/18 08:09:48;;;;;;;1.60;1.50;;;;;;;22.70;92.56;97502.91;4990542;28;20386;-65
2021/09/18 08:12:16;;;;;;;1.63;1.53;;;;;;;22.70;92.52;97507.16;4989033;28;20568;-66
2021/09/18 08:14:42;;;;;;;1.90;1.80;;;;;;;22.70;92.62;97491.78;4989218;28;20203;-65
2021/09/18 08:17:09;;;;;;;1.80;1.70;;;;;;;22.71;92.56;97488.44;4989842;28;20202;-65
2021/09/18 08:19:36;;;;;;;1.80;1.70;;;;;;;22.70;92.55;97489.22;4999375;28;20230;-64
2021/09/18 08:22:03;;;;;;;1.63;1.53;;;;;;;22.70;92.61;97490.13;4990222;28;20482;-65
2021/09/18 08:24:29;;;;;;;1.67;1.57;;;;;;;22.70;92.59;97487.56;4989471;28;20281;-65
2021/09/18 08:26:56;;;;;;;1.80;1.70;;;;;;;22.70;92.56;97490.13;4990355;28;20237;-64
2021/09/18 08:29:22;;;;;;;1.67;1.57;;;;;;;22.70;92.52;97487.56;4989617;28;20243;-64
2021/09/18 08:31:49;;;;;;;1.57;1.47;;;;;;;22.71;92.32;97480.75;4991246;28;20635;-65
2021/09/18 08:34:16;;;;;;;1.80;1.70;;;;;;;22.70;92.70;97477.31;5001519;28;20583;-64
2021/09/18 08:36:42;;;;;;;1.80;1.70;;;;;;;22.70;92.60;97476.44;4994639;28;20262;-65
2021/09/18 08:39:09;;;;;;;1.83;1.73;;;;;;;22.70;92.41;97471.31;4992587;28;20230;-64
2021/09/18 08:41:45;;;;;;;1.70;1.60;;;;;;;22.70;92.49;97477.31;4993163;28;20312;-65
2021/09/18 08:44:11;;;;;;;1.70;1.60;;;;;;;22.70;92.54;97471.31;4995580;28;20209;-65
2021/09/18 08:46:38;;;;;;;1.87;1.77;;;;;;;22.70;92.42;97469.63;4999920;28;20287;-65
2021/09/18 08:49:05;;;;;;;1.60;1.50;;;;;;;22.71;92.44;97478.19;4994700;28;20202;-64
2021/09/18 08:51:31;;;;;;;2.60;1.80;;;;;;;22.70;92.52;97472.19;4999605;28;20257;-66
2021/09/18 08:53:58;;;;;;;1.83;1.73;;;;;;;22.70;92.44;97474.75;4995152;28;20206;-66
2021/09/18 08:56:24;;;;;;;1.73;1.63;;;;;;;22.71;92.52;97470.50;4993265;28;20250;-65
2021/09/18 08:58:51;;;;;;;1.70;1.60;;;;;;;22.71;92.40;97470.50;4994115;28;20269;-66
2021/09/18 09:01:20;;;;;;;1.93;1.73;;;;;;;22.71;92.17;97476.47;5033866;22;20647;-70
2021/09/18 09:03:54;;;;;;;1.80;1.70;;;;;;;22.70;92.35;97477.31;5001464;28;20277;-70
2021/09/18 09:06:22;;;;;;;1.97;1.80;;;;;;;22.67;92.83;97468.66;4990550;28;20263;-70
2021/09/18 09:08:56;;;;;;;1.90;1.80;;;;;;;22.61;92.65;97454.03;5004680;28;20211;-70
2021/09/18 09:11:29;;;;;;;1.60;1.50;;;;;;;22.43;92.24;97424.50;4995504;28;20229;-70
2021/09/18 09:14:03;;;;;;;1.80;1.70;;;;;;;22.63;92.50;97457.50;4974660;28;20249;-69
2021/09/18 09:16:32;;;;;;;1.70;1.60;;;;;;;22.61;92.47;97453.16;4981585;28;20203;-70
2021/09/18 09:19:12;;;;;;;1.80;1.70;;;;;;;22.71;92.46;97465.38;4992746;28;20206;-69
2021/09/18 09:21:38;;;;;;;1.70;1.60;;;;;;;22.70;92.29;97467.06;4983462;28;20317;-71
2021/09/18 09:24:13;;;;;;;1.70;1.60;;;;;;;22.38;92.44;97409.03;4989526;28;20239;-70
2021/09/18 09:26:41;;;;;;;1.90;1.80;;;;;;;22.45;92.48;97416.06;4981126;28;20259;-70
2021/09/18 09:29:07;;;;;;;2.00;1.90;;;;;;;22.69;92.51;97454.22;4996891;28;20227;-70
2021/09/18 09:31:35;;;;;;;2.97;1.90;;;;;;;22.61;92.47;97448.03;4989499;28;20226;-70
2021/09/18 09:34:16;;;;;;;1.87;1.77;;;;;;;22.70;92.37;97459.38;4991185;28;20211;-70
2021/09/18 09:36:45;;;;;;;1.50;1.40;;;;;;;22.66;92.47;97449.00;4984955;28;20211;-70
2021/09/18 09:39:14;;;;;;;1.70;1.60;;;;;;;22.67;92.37;97454.19;4991866;28;20204;-70
2021/09/18 09:41:46;;;;;;;1.60;1.50;;;;;;;22.58;92.55;97436.03;4981777;28;20273;-70
2021/09/18 09:44:26;;;;;;;1.70;1.60;;;;;;;22.70;92.48;97454.25;4985797;28;20209;-69
2021/09/18 09:47:07;;;;;;;1.80;1.70;;;;;;;22.71;92.39;97455.97;4981701;28;20203;-70
2021/09/18 09:49:51;;;;;;;1.77;1.67;;;;;;;22.67;92.28;97450.72;4995434;28;20233;-71
2021/09/18 09:52:23;;;;;;;1.70;1.60;;;;;;;22.70;92.49;97461.94;4994410;28;20203;-71
2021/09/18 09:55:17;;;;;;;1.70;1.60;;;;;;;22.71;92.49;97463.66;4990669;28;20313;-70
2021/09/18 09:58:15;;;;;;;1.80;1.70;;;;;;;22.73;92.44;97458.56;4980158;28;20203;-70
2021/09/18 10:00:51;;;;;;;1.63;1.53;;;;;;;22.65;92.43;97449.84;4995580;28;20784;-70
2021/09/18 10:03:22;;;;;;;1.57;1.47;;;;;;;22.65;92.24;97444.72;4990237;28;20285;-70
2021/09/18 10:05:50;;;;;;;1.53;1.43;;;;;;;22.69;92.35;97456.78;4984157;28;20242;-71
2021/09/18 10:08:23;;;;;;;1.60;1.50;;;;;;;22.69;92.32;97454.22;4986552;28;20227;-70
2021/09/18 10:10:51;;;;;;;1.70;1.60;;;;;;;22.55;92.30;97429.94;4987268;28;20254;-70
2021/09/18 10:13:21;;;;;;;1.60;1.50;;;;;;;22.55;92.32;97432.50;4982554;28;20385;-69
2021/09/18 10:15:48;;;;;;;1.60;1.50;;;;;;;22.65;91.90;97453.25;4995671;28;20219;-72
2021/09/18 10:18:14;;;;;;;1.70;1.60;;;;;;;22.62;92.30;97444.66;4975976;28;20704;-70
2021/09/18 10:23:22;;;;;;;1.70;1.60;;;;;;;22.66;92.51;97449.00;4980931;28;20230;-70
2021/09/18 10:25:50;;;;;;;1.83;1.73;;;;;;;22.66;92.46;97442.19;4960214;28;20685;-70
2021/09/18 10:28:21;;;;;;;1.87;1.60;;;;;;;22.66;92.41;97439.66;4981514;28;20203;-70
2021/09/18 10:30:51;;;;;;;1.73;1.63;;;;;;;22.56;92.50;97417.19;4982455;28;20239;-69
2021/09/18 10:33:40;;;;;;;1.73;1.63;;;;;;;22.65;92.56;97422.53;5001988;28;20226;-70
2021/09/18 10:36:10;;;;;;;1.60;1.50;;;;;;;22.66;92.59;97425.97;4990530;28;20203;-73
2021/09/18 10:38:39;;;;;;;1.67;1.57;;;;;;;22.65;92.52;97426.81;5000491;28;20235;-71
2021/09/18 10:41:08;;;;;;;1.37;1.30;;;;;;;22.64;92.62;97419.91;4981680;28;20243;-70
2021/09/18 10:43:52;;;;;;;1.63;1.53;;;;;;;22.61;92.55;97414.72;4980544;28;20654;-70
2021/09/18 10:46:43;;;;;;;1.70;1.60;;;;;;;22.66;92.57;97423.41;4986310;28;20637;-70
2021/09/18 10:49:32;;;;;;;1.60;1.50;;;;;;;22.64;92.55;97415.69;4984013;28;20226;-70
2021/09/18 10:52:17;;;;;;;1.70;1.60;;;;;;;22.64;92.62;97417.34;4977787;28;20203;-70
2021/09/18 10:55:16;;;;;;;1.60;1.50;;;;;;;22.64;92.69;97412.25;4998316;28;20250;-72
2021/09/18 10:57:48;;;;;;;1.63;1.53;;;;;;;22.64;92.68;97413.13;4958230;28;20652;-69
2021/09/18 11:00:21;;;;;;;1.60;1.50;;;;;;;22.64;92.72;97414.78;4982329;28;20223;-70
2021/09/18 11:02:50;;;;;;;1.60;1.50;;;;;;;22.63;92.78;97411.41;4989314;28;20207;-70
2021/09/18 11:05:20;;;;;;;1.60;1.50;;;;;;;22.65;92.90;97414.00;4995464;28;20204;-70
2021/09/18 11:07:50;;;;;;;1.50;1.40;;;;;;;22.65;92.76;97414.00;4987594;28;20281;-71
2021/09/18 11:10:20;;;;;;;1.60;1.50;;;;;;;22.63;92.76;97411.41;4994715;28;20247;-70
2021/09/18 11:13:08;;;;;;;1.50;1.40;;;;;;;22.63;92.85;97405.38;4983280;28;20239;-70
2021/09/18 11:15:44;;;;;;;1.60;1.50;;;;;;;22.51;92.81;97380.38;4978699;28;20214;-70
2021/09/18 11:18:36;;;;;;;1.50;1.40;;;;;;;22.63;92.79;97405.38;4999213;28;20206;-70
2021/09/18 11:21:13;;;;;;;1.60;1.50;;;;;;;22.59;92.91;97396.75;4983099;28;20274;-70
2021/09/18 11:24:00;;;;;;;1.77;1.67;;;;;;;22.56;92.91;97393.28;4990281;28;20207;-72
2021/09/18 11:26:31;;;;;;;1.47;1.37;;;;;;;22.51;92.78;97390.63;5006845;28;20297;-70
2021/09/18 11:29:20;;;;;;;1.70;1.60;;;;;;;22.62;92.82;97407.06;4986663;28;20301;-71
2021/09/18 11:32:05;;;;;;;1.40;1.30;;;;;;;22.63;92.81;97410.50;4982615;28;20239;-70
2021/09/18 11:34:51;;;;;;;1.70;1.60;;;;;;;22.62;92.84;97404.53;4984585;28;20697;-70
2021/09/18 11:37:35;;;;;;;1.47;1.37;;;;;;;22.62;92.83;97404.53;4983503;28;20242;-70
2021/09/18 11:40:06;;;;;;;1.60;1.50;;;;;;;22.50;92.93;97388.88;4982601;28;20665;-70
2021/09/18 11:42:40;;;;;;;1.50;1.40;;;;;;;22.63;92.89;97403.72;5001760;28;20235;-71
2021/09/18 11:45:18;;;;;;;1.40;1.30;;;;;;;22.31;92.76;97355.97;4982707;28;20211;-72